createdAt,value
2022-12-02T00:04:12.503Z,0.76
2022-12-02T00:09:26.875Z,0.67
2022-12-02T00:14:36.783Z,0.59
2022-12-02T00:19:44.012Z,0.57
2022-12-02T00:24:51.157Z,0.58
2022-12-02T00:29:58.210Z,0.61
2022-12-02T00:35:05.368Z,0.60
2022-12-02T00:40:14.917Z,0.57
2022-12-02T00:45:39.353Z,0.52
2022-12-02T00:50:47.234Z,0.43
2022-12-02T00:55:54.229Z,0.36
2022-12-02T01:01:01.290Z,0.34
2022-12-02T01:06:08.600Z,0.41
2022-12-02T01:11:15.739Z,0.46
2022-12-02T01:16:22.690Z,0.47
2022-12-02T01:21:29.579Z,0.46
2022-12-02T01:26:36.515Z,0.38
2022-12-02T01:31:43.558Z,0.28
2022-12-02T01:36:50.584Z,0.20
2022-12-02T01:41:57.891Z,0.12
2022-12-02T01:47:05.376Z,0.07
2022-12-02T01:52:12.344Z,-0.01
2022-12-02T01:57:22.222Z,-0.10
2022-12-02T02:02:31.219Z,-0.13
2022-12-02T02:07:39.538Z,-0.12
2022-12-02T02:12:47.435Z,-0.16
2022-12-02T02:17:57.567Z,-0.28
2022-12-02T02:23:18.918Z,-0.39
2022-12-02T02:28:27.090Z,-0.44
2022-12-02T02:33:36.501Z,-0.45
2022-12-02T02:38:43.426Z,-0.46
2022-12-02T02:43:50.596Z,-0.49
2022-12-02T02:48:57.648Z,-0.49
2022-12-02T02:54:04.745Z,-0.51
2022-12-02T02:59:15.379Z,-0.53
2022-12-02T03:04:25.429Z,-0.53
2022-12-02T03:09:33.072Z,-0.50
2022-12-02T03:14:41.575Z,-0.45
2022-12-02T03:19:49.347Z,-0.42
2022-12-02T03:24:57.116Z,-0.42
2022-12-02T03:30:05.294Z,-0.46
2022-12-02T03:35:14.371Z,-0.51
2022-12-02T03:40:21.412Z,-0.59
2022-12-02T03:45:28.817Z,-0.62
2022-12-02T03:50:35.776Z,-0.62
2022-12-02T03:55:43.076Z,-0.61
2022-12-02T04:00:50.025Z,-0.67
2022-12-02T04:05:57.317Z,-0.78
2022-12-02T04:11:04.958Z,-0.87
2022-12-02T04:16:17.978Z,-0.93
2022-12-02T04:21:25.460Z,-0.96
2022-12-02T04:26:32.308Z,-0.95
2022-12-02T04:31:39.347Z,-0.96
2022-12-02T04:36:46.266Z,-1.02
2022-12-02T04:41:53.409Z,-1.04
2022-12-02T04:47:00.440Z,-1.05
2022-12-02T04:52:07.392Z,-1.05
2022-12-02T04:57:14.383Z,-1.07
2022-12-02T05:02:21.388Z,-1.13
2022-12-02T05:07:28.429Z,-1.19
2022-12-02T05:12:35.379Z,-1.22
2022-12-02T05:17:42.640Z,-1.24
2022-12-02T05:22:49.642Z,-1.25
2022-12-02T05:27:56.661Z,-1.23
2022-12-02T05:33:04.145Z,-1.23
2022-12-02T05:38:11.125Z,-1.25
2022-12-02T05:43:23.468Z,-1.32
2022-12-02T05:48:34.675Z,-1.35
2022-12-02T05:53:43.557Z,-1.38
2022-12-02T05:58:50.545Z,-1.37
2022-12-02T06:03:57.482Z,-1.32
2022-12-02T06:09:12.480Z,-1.27
2022-12-02T06:14:22.474Z,-1.25
2022-12-02T06:19:40.475Z,-1.25
2022-12-02T06:24:48.247Z,-1.29
2022-12-02T06:29:57.697Z,-1.31
2022-12-02T06:35:17.940Z,-1.28
2022-12-02T06:40:30.515Z,-1.26
2022-12-02T06:45:37.589Z,-1.30
2022-12-02T06:50:47.292Z,-1.38
2022-12-02T06:55:58.393Z,-1.49
2022-12-02T07:01:21.203Z,-1.57
2022-12-02T07:06:30.555Z,-1.56
2022-12-02T07:11:53.892Z,-1.57
2022-12-02T07:17:04.135Z,-1.63
2022-12-02T07:22:20.321Z,-1.74
2022-12-02T07:27:31.157Z,-1.82
2022-12-02T07:32:37.994Z,-1.84
2022-12-02T07:37:44.958Z,-1.86
2022-12-02T07:42:52.128Z,-1.93
2022-12-02T07:47:59.123Z,-2.01
2022-12-02T07:53:06.099Z,-2.05
2022-12-02T07:58:13.069Z,-2.08
2022-12-02T08:03:19.977Z,-2.11
2022-12-02T08:08:26.877Z,-2.13
2022-12-02T08:13:33.703Z,-2.13
2022-12-02T08:18:40.575Z,-2.13
2022-12-02T08:23:47.494Z,-2.10
2022-12-02T08:28:54.640Z,-2.12
2022-12-02T08:34:06.787Z,-2.13
2022-12-02T08:39:14.332Z,-2.18
2022-12-02T08:44:21.177Z,-2.24
2022-12-02T08:49:28.506Z,-2.23
2022-12-02T08:54:35.435Z,-2.17
2022-12-02T08:59:42.376Z,-2.14
2022-12-02T09:04:49.468Z,-2.17
2022-12-02T09:09:56.481Z,-2.20
2022-12-02T09:15:03.327Z,-2.22
2022-12-02T09:20:11.552Z,-2.20
2022-12-02T09:25:19.063Z,-2.17
2022-12-02T09:30:25.976Z,-2.14
2022-12-02T09:35:32.910Z,-2.17
2022-12-02T09:40:40.160Z,-2.15
2022-12-02T09:45:47.142Z,-2.18
2022-12-02T09:50:54.359Z,-2.18
2022-12-02T09:56:02.260Z,-2.12
2022-12-02T10:01:12.379Z,-2.13
2022-12-02T10:06:24.635Z,-2.24
2022-12-02T10:11:34.358Z,-2.29
2022-12-02T10:16:42.270Z,-2.34
2022-12-02T10:21:54.884Z,-2.33
2022-12-02T10:27:02.416Z,-2.26
2022-12-02T10:32:20.524Z,-2.24
2022-12-02T10:37:29.113Z,-2.19
2022-12-02T10:42:36.465Z,-2.14
2022-12-02T10:47:43.498Z,-2.12
2022-12-02T10:52:52.309Z,-2.17
2022-12-02T10:57:59.785Z,-2.24
2022-12-02T11:03:07.288Z,-2.22
2022-12-02T11:08:24.444Z,-2.17
2022-12-02T11:13:53.997Z,-2.13
2022-12-02T11:19:04.659Z,-2.13
2022-12-02T11:24:45.265Z,-2.12
2022-12-02T11:30:26.512Z,-2.17
2022-12-02T11:36:04.270Z,-2.25
2022-12-02T11:41:11.295Z,-2.30
2022-12-02T11:46:20.868Z,-2.27
2022-12-02T11:51:37.870Z,-2.21
2022-12-02T11:56:47.656Z,-2.17
2022-12-02T12:02:10.262Z,-2.19
2022-12-02T12:07:17.289Z,-2.25
2022-12-02T12:12:24.262Z,-2.35
2022-12-02T12:17:46.931Z,-2.43
2022-12-02T12:22:54.295Z,-2.43
2022-12-02T12:28:01.522Z,-2.38
2022-12-02T12:33:08.450Z,-2.36
2022-12-02T12:38:15.530Z,-2.32
2022-12-02T12:43:22.437Z,-2.28
2022-12-02T12:48:29.374Z,-2.26
2022-12-02T12:53:36.252Z,-2.24
2022-12-02T12:58:43.250Z,-2.22
2022-12-02T13:03:50.240Z,-2.18
2022-12-02T13:08:57.154Z,-2.16
2022-12-02T13:14:04.160Z,-2.19
2022-12-02T13:19:11.012Z,-2.22
2022-12-02T13:24:17.891Z,-2.26
2022-12-02T13:29:24.869Z,-2.33
2022-12-02T13:34:31.797Z,-2.41
2022-12-02T13:39:38.842Z,-2.50
2022-12-02T13:44:45.704Z,-2.54
2022-12-02T13:49:52.956Z,-2.52
2022-12-02T13:55:00.183Z,-2.49
2022-12-02T14:00:09.107Z,-2.53
2022-12-02T14:05:19.765Z,-2.53
2022-12-02T14:10:26.755Z,-2.51
2022-12-02T14:15:34.157Z,-2.52
2022-12-02T14:20:41.117Z,-2.55
2022-12-02T14:25:48.034Z,-2.55
2022-12-02T14:30:55.081Z,-2.55
2022-12-02T14:36:02.472Z,-2.60
2022-12-02T14:41:09.587Z,-2.62
2022-12-02T14:46:16.500Z,-2.61
2022-12-02T14:51:23.615Z,-2.62
2022-12-02T14:56:30.492Z,-2.63
2022-12-02T15:01:37.423Z,-2.67
2022-12-02T15:06:45.117Z,-2.66
2022-12-02T15:11:52.358Z,-2.62
2022-12-02T15:16:59.230Z,-2.60
2022-12-02T15:22:06.117Z,-2.61
2022-12-02T15:27:13.032Z,-2.64
2022-12-02T15:32:20.089Z,-2.69
2022-12-02T15:37:26.959Z,-2.75
2022-12-02T15:42:33.851Z,-2.81
2022-12-02T15:47:40.748Z,-2.81
2022-12-02T15:52:47.622Z,-2.83
2022-12-02T15:57:54.465Z,-2.87
2022-12-02T16:03:01.622Z,-2.89
2022-12-02T16:08:08.937Z,-2.88
2022-12-02T16:13:16.326Z,-2.87
2022-12-02T16:18:23.188Z,-2.89
2022-12-02T16:23:30.255Z,-2.84
2022-12-02T16:28:38.256Z,-2.79
2022-12-02T16:33:45.334Z,-2.74
2022-12-02T16:38:52.358Z,-2.71
2022-12-02T16:43:59.337Z,-2.74
2022-12-02T16:49:08.433Z,-2.79
2022-12-02T16:54:15.353Z,-2.84
2022-12-02T16:59:23.376Z,-2.91
2022-12-02T17:04:30.314Z,-2.97
2022-12-02T17:09:37.405Z,-2.99
2022-12-02T17:14:44.358Z,-2.98
2022-12-02T17:19:51.257Z,-2.95
2022-12-02T17:24:58.773Z,-2.95
2022-12-02T17:30:07.320Z,-2.94
2022-12-02T17:35:14.828Z,-2.96
2022-12-02T17:40:22.045Z,-3.02
2022-12-02T17:45:29.022Z,-3.02
2022-12-02T17:50:36.166Z,-2.95
2022-12-02T17:55:43.203Z,-2.88
2022-12-02T18:00:50.353Z,-2.84
2022-12-02T18:05:57.429Z,-2.84
2022-12-02T18:11:04.444Z,-2.85
2022-12-02T18:16:11.796Z,-2.91
2022-12-02T18:21:19.857Z,-2.92
2022-12-02T18:26:25.280Z,-2.84
2022-12-02T18:31:32.405Z,-2.76
2022-12-02T18:36:39.504Z,-2.75
2022-12-02T18:41:46.586Z,-2.74
2022-12-02T18:46:53.504Z,-2.78
2022-12-02T18:52:00.593Z,-2.83
2022-12-02T18:57:07.618Z,-2.87
2022-12-02T19:02:14.734Z,-2.92
2022-12-02T19:07:22.416Z,-2.92
2022-12-02T19:12:31.579Z,-2.82
2022-12-02T19:17:38.503Z,-2.73
2022-12-02T19:22:45.416Z,-2.70
2022-12-02T19:27:59.642Z,-2.70
2022-12-02T19:33:06.784Z,-2.76
2022-12-02T19:38:15.623Z,-2.85
2022-12-02T19:43:22.796Z,-2.93
2022-12-02T19:48:29.706Z,-2.98
2022-12-02T19:53:37.454Z,-2.99
2022-12-02T19:58:44.475Z,-2.99
2022-12-02T20:03:51.462Z,-3.00
2022-12-02T20:08:58.379Z,-3.02
2022-12-02T20:14:05.452Z,-3.05
2022-12-02T20:19:12.433Z,-3.09
2022-12-02T20:24:19.519Z,-3.13
2022-12-02T20:29:27.769Z,-3.18
2022-12-02T20:34:35.545Z,-3.17
2022-12-02T20:39:43.117Z,-3.10
2022-12-02T20:44:52.907Z,-3.01
2022-12-02T20:50:00.497Z,-2.96
2022-12-02T20:55:08.482Z,-2.98
2022-12-02T21:00:17.945Z,-3.06
2022-12-02T21:05:24.845Z,-3.15
2022-12-02T21:10:31.749Z,-3.17
2022-12-02T21:15:38.680Z,-3.19
2022-12-02T21:20:45.759Z,-3.18
2022-12-02T21:25:52.671Z,-3.14
2022-12-02T21:30:59.687Z,-3.16
2022-12-02T21:36:07.267Z,-3.22
2022-12-02T21:41:14.149Z,-3.26
2022-12-02T21:46:21.230Z,-3.28
2022-12-02T21:51:28.100Z,-3.35
2022-12-02T21:56:37.109Z,-3.36
2022-12-02T22:01:45.830Z,-3.33
2022-12-02T22:07:13.410Z,-3.30
2022-12-02T22:12:20.595Z,-3.34
2022-12-02T22:17:27.532Z,-3.45
2022-12-02T22:22:34.663Z,-3.54
2022-12-02T22:27:46.678Z,-3.58
2022-12-02T22:32:53.533Z,-3.63
2022-12-02T22:38:00.380Z,-3.67
2022-12-02T22:43:07.377Z,-3.63
2022-12-02T22:48:14.235Z,-3.57
2022-12-02T22:53:21.167Z,-3.55
2022-12-02T22:58:28.091Z,-3.60
2022-12-02T23:03:34.976Z,-3.68
2022-12-02T23:08:41.858Z,-3.74
2022-12-02T23:13:48.832Z,-3.73
2022-12-02T23:18:55.675Z,-3.67
2022-12-02T23:24:02.568Z,-3.61
2022-12-02T23:29:09.431Z,-3.61
2022-12-02T23:34:16.316Z,-3.67
2022-12-02T23:39:23.181Z,-3.68
2022-12-02T23:44:30.047Z,-3.70
2022-12-02T23:49:36.864Z,-3.77
2022-12-02T23:54:43.785Z,-3.81
2022-12-02T23:59:50.878Z,-3.81
